sensor_id;sensor_type;location;lat;lon;timestamp;pressure;altitude;pressure_sealevel;temperature;humidity
10668;BME280;5382;42.136;24.796;2022-10-22T00:01:04;100798.00;;;9.48;100.00
10668;BME280;5382;42.136;24.796;2022-10-22T00:03:36;100843.09;;;9.78;100.00
10668;BME280;5382;42.136;24.796;2022-10-22T00:06:04;100822.66;;;9.65;100.00
10668;BME280;5382;42.136;24.796;2022-10-22T00:08:32;100894.91;;;10.14;100.00
10668;BME280;5382;42.136;24.796;2022-10-22T00:14:12;100846.38;;;9.99;100.00
10668;BME280;5382;42.136;24.796;2022-10-22T00:16:41;100867.72;;;10.12;100.00
10668;BME280;5382;42.136;24.796;2022-10-22T00:21:54;100745.47;;;9.42;100.00
10668;BME280;5382;42.136;24.796;2022-10-22T00:24:22;100824.25;;;9.85;100.00
10668;BME280;5382;42.136;24.796;2022-10-22T00:26:51;100721.41;;;9.15;100.00
10668;BME280;5382;42.136;24.796;2022-10-22T00:29:20;100774.66;;;9.56;100.00
10668;BME280;5382;42.136;24.796;2022-10-22T00:31:49;100721.81;;;9.07;100.00
10668;BME280;5382;42.136;24.796;2022-10-22T00:34:19;100852.56;;;9.82;100.00
10668;BME280;5382;42.136;24.796;2022-10-22T00:36:49;100762.16;;;9.27;100.00
10668;BME280;5382;42.136;24.796;2022-10-22T00:39:18;100813.28;;;9.59;100.00
10668;BME280;5382;42.136;24.796;2022-10-22T00:41:47;100875.31;;;9.85;100.00
10668;BME280;5382;42.136;24.796;2022-10-22T00:47:21;100841.56;;;9.57;100.00
10668;BME280;5382;42.136;24.796;2022-10-22T00:49:50;100862.75;;;9.73;100.00
10668;BME280;5382;42.136;24.796;2022-10-22T00:52:21;100804.31;;;9.28;100.00
10668;BME280;5382;42.136;24.796;2022-10-22T00:54:50;100778.59;;;8.99;100.00
10668;BME280;5382;42.136;24.796;2022-10-22T00:57:19;100858.44;;;9.37;100.00
10668;BME280;5382;42.136;24.796;2022-10-22T00:59:47;100802.78;;;8.89;100.00
10668;BME280;5382;42.136;24.796;2022-10-22T01:02:16;100859.78;;;9.11;100.00
10668;BME280;5382;42.136;24.796;2022-10-22T01:04:46;100790.66;;;8.50;100.00
10668;BME280;5382;42.136;24.796;2022-10-22T01:07:17;100848.50;;;8.72;100.00
10668;BME280;5382;42.136;24.796;2022-10-22T01:09:51;100801.84;;;8.37;100.00
10668;BME280;5382;42.136;24.796;2022-10-22T01:12:34;100863.91;;;8.63;100.00
10668;BME280;5382;42.136;24.796;2022-10-22T01:15:12;100799.59;;;7.91;100.00
10668;BME280;5382;42.136;24.796;2022-10-22T01:17:48;100849.16;;;8.21;100.00
10668;BME280;5382;42.136;24.796;2022-10-22T01:20:33;100677.97;;;7.06;100.00
10668;BME280;5382;42.136;24.796;2022-10-22T01:23:18;100722.81;;;7.42;100.00
10668;BME280;5382;42.136;24.796;2022-10-22T01:25:52;100707.53;;;7.50;100.00
10668;BME280;5382;42.136;24.796;2022-10-22T01:31:17;100809.22;;;8.11;100.00
10668;BME280;5382;42.136;24.796;2022-10-22T01:33:48;100786.81;;;8.20;100.00
10668;BME280;5382;42.136;24.796;2022-10-22T01:36:18;100790.03;;;8.26;100.00
10668;BME280;5382;42.136;24.796;2022-10-22T01:38:46;100737.00;;;7.77;100.00
10668;BME280;5382;42.136;24.796;2022-10-22T01:41:15;100644.09;;;7.55;100.00
10668;BME280;5382;42.136;24.796;2022-10-22T01:43:42;100802.91;;;8.51;100.00
10668;BME280;5382;42.136;24.796;2022-10-22T01:46:11;100768.56;;;8.34;100.00
10668;BME280;5382;42.136;24.796;2022-10-22T01:48:48;100837.41;;;8.83;100.00
10668;BME280;5382;42.136;24.796;2022-10-22T01:51:32;100783.22;;;8.59;100.00
10668;BME280;5382;42.136;24.796;2022-10-22T01:54:14;100759.44;;;8.41;100.00
10668;BME280;5382;42.136;24.796;2022-10-22T01:56:53;100801.13;;;8.69;100.00
10668;BME280;5382;42.136;24.796;2022-10-22T01:59:32;100829.50;;;8.83;100.00
10668;BME280;5382;42.136;24.796;2022-10-22T02:02:03;100769.59;;;8.49;100.00
10668;BME280;5382;42.136;24.796;2022-10-22T02:04:37;100836.94;;;8.92;100.00
10668;BME280;5382;42.136;24.796;2022-10-22T02:07:08;100796.06;;;8.47;100.00
10668;BME280;5382;42.136;24.796;2022-10-22T02:09:36;100771.78;;;8.41;100.00
10668;BME280;5382;42.136;24.796;2022-10-22T02:12:12;100627.72;;;7.48;100.00
10668;BME280;5382;42.136;24.796;2022-10-22T02:14:42;100839.88;;;8.69;100.00
10668;BME280;5382;42.136;24.796;2022-10-22T02:17:12;100842.50;;;8.69;100.00
10668;BME280;5382;42.136;24.796;2022-10-22T02:19:47;100752.44;;;8.04;100.00
10668;BME280;5382;42.136;24.796;2022-10-22T02:22:19;100860.81;;;8.72;100.00
10668;BME280;5382;42.136;24.796;2022-10-22T02:24:48;100792.88;;;8.41;100.00
10668;BME280;5382;42.136;24.796;2022-10-22T02:27:20;100742.38;;;8.12;100.00
10668;BME280;5382;42.136;24.796;2022-10-22T02:29:51;100822.31;;;8.32;100.00
10668;BME280;5382;42.136;24.796;2022-10-22T02:32:25;100834.78;;;8.47;100.00
10668;BME280;5382;42.136;24.796;2022-10-22T02:34:59;100810.50;;;8.21;100.00
10668;BME280;5382;42.136;24.796;2022-10-22T02:37:27;100804.69;;;8.32;100.00
10668;BME280;5382;42.136;24.796;2022-10-22T02:39:54;100799.16;;;8.19;100.00
10668;BME280;5382;42.136;24.796;2022-10-22T02:42:23;100853.16;;;8.29;100.00
10668;BME280;5382;42.136;24.796;2022-10-22T02:44:50;100799.09;;;7.83;100.00
10668;BME280;5382;42.136;24.796;2022-10-22T02:47:17;100817.97;;;8.12;100.00
10668;BME280;5382;42.136;24.796;2022-10-22T02:49:44;100781.72;;;7.79;100.00
10668;BME280;5382;42.136;24.796;2022-10-22T02:52:12;100881.38;;;8.08;100.00
10668;BME280;5382;42.136;24.796;2022-10-22T02:54:39;100819.09;;;7.87;100.00
10668;BME280;5382;42.136;24.796;2022-10-22T02:57:06;100803.13;;;7.52;100.00
10668;BME280;5382;42.136;24.796;2022-10-22T02:59:34;100710.66;;;7.00;100.00
10668;BME280;5382;42.136;24.796;2022-10-22T03:02:01;100786.53;;;7.50;100.00
10668;BME280;5382;42.136;24.796;2022-10-22T03:04:28;100823.22;;;7.74;100.00
10668;BME280;5382;42.136;24.796;2022-10-22T03:06:56;100751.19;;;7.35;100.00
10668;BME280;5382;42.136;24.796;2022-10-22T03:09:24;100780.81;;;7.40;100.00
10668;BME280;5382;42.136;24.796;2022-10-22T03:11:53;100774.84;;;7.37;100.00
10668;BME280;5382;42.136;24.796;2022-10-22T03:14:20;100844.94;;;7.79;100.00
10668;BME280;5382;42.136;24.796;2022-10-22T03:16:47;100777.59;;;7.34;100.00
10668;BME280;5382;42.136;24.796;2022-10-22T03:19:20;100827.03;;;7.67;100.00
10668;BME280;5382;42.136;24.796;2022-10-22T03:21:50;100844.94;;;7.79;100.00
10668;BME280;5382;42.136;24.796;2022-10-22T03:24:22;100844.78;;;7.82;100.00
10668;BME280;5382;42.136;24.796;2022-10-22T03:26:56;100668.00;;;6.73;100.00
10668;BME280;5382;42.136;24.796;2022-10-22T03:29:25;100741.56;;;7.15;100.00
10668;BME280;5382;42.136;24.796;2022-10-22T03:31:53;100866.16;;;7.76;100.00
10668;BME280;5382;42.136;24.796;2022-10-22T03:34:21;100852.97;;;7.76;100.00
10668;BME280;5382;42.136;24.796;2022-10-22T03:36:48;100738.31;;;6.90;100.00
10668;BME280;5382;42.136;24.796;2022-10-22T03:39:16;100781.22;;;7.31;100.00
10668;BME280;5382;42.136;24.796;2022-10-22T03:41:44;100765.13;;;7.18;100.00
10668;BME280;5382;42.136;24.796;2022-10-22T03:44:14;100772.59;;;7.28;100.00
10668;BME280;5382;42.136;24.796;2022-10-22T03:46:42;100850.75;;;7.67;100.00
10668;BME280;5382;42.136;24.796;2022-10-22T03:49:11;100776.03;;;7.30;100.00
10668;BME280;5382;42.136;24.796;2022-10-22T03:51:38;100833.78;;;7.53;100.00
10668;BME280;5382;42.136;24.796;2022-10-22T03:54:06;100669.78;;;6.52;100.00
10668;BME280;5382;42.136;24.796;2022-10-22T03:56:33;100820.72;;;7.31;100.00
10668;BME280;5382;42.136;24.796;2022-10-22T03:59:00;100844.78;;;7.63;100.00
10668;BME280;5382;42.136;24.796;2022-10-22T04:01:32;100833.38;;;7.62;100.00
10668;BME280;5382;42.136;24.796;2022-10-22T04:03:59;100828.28;;;7.39;100.00
10668;BME280;5382;42.136;24.796;2022-10-22T04:06:28;100871.63;;;7.51;100.00
10668;BME280;5382;42.136;24.796;2022-10-22T04:08:56;100786.38;;;7.14;100.00
10668;BME280;5382;42.136;24.796;2022-10-22T04:11:25;100760.91;;;6.94;100.00
10668;BME280;5382;42.136;24.796;2022-10-22T04:13:52;100782.28;;;6.86;100.00
10668;BME280;5382;42.136;24.796;2022-10-22T04:16:20;100840.25;;;7.05;100.00
10668;BME280;5382;42.136;24.796;2022-10-22T04:18:51;100712.78;;;6.51;100.00
10668;BME280;5382;42.136;24.796;2022-10-22T04:21:19;100816.63;;;7.24;100.00
10668;BME280;5382;42.136;24.796;2022-10-22T04:23:46;100866.94;;;7.38;100.00
10668;BME280;5382;42.136;24.796;2022-10-22T04:26:14;100876.59;;;7.38;100.00
10668;BME280;5382;42.136;24.796;2022-10-22T04:28:42;100862.19;;;7.26;100.00
10668;BME280;5382;42.136;24.796;2022-10-22T04:31:11;100798.69;;;7.13;100.00
10668;BME280;5382;42.136;24.796;2022-10-22T04:33:39;100851.97;;;7.39;100.00
10668;BME280;5382;42.136;24.796;2022-10-22T04:36:09;100816.13;;;7.16;100.00
10668;BME280;5382;42.136;24.796;2022-10-22T04:38:37;100860.13;;;7.53;100.00
10668;BME280;5382;42.136;24.796;2022-10-22T04:41:10;100828.66;;;7.30;100.00
10668;BME280;5382;42.136;24.796;2022-10-22T04:43:38;100860.88;;;7.76;100.00
10668;BME280;5382;42.136;24.796;2022-10-22T04:46:05;100868.66;;;7.79;100.00
10668;BME280;5382;42.136;24.796;2022-10-22T04:48:33;100831.75;;;7.79;100.00
10668;BME280;5382;42.136;24.796;2022-10-22T04:51:02;100813.66;;;7.71;100.00
10668;BME280;5382;42.136;24.796;2022-10-22T04:53:37;100699.06;;;7.04;100.00
10668;BME280;5382;42.136;24.796;2022-10-22T04:56:07;100874.72;;;7.81;100.00
10668;BME280;5382;42.136;24.796;2022-10-22T04:58:35;100760.47;;;7.44;100.00
10668;BME280;5382;42.136;24.796;2022-10-22T05:01:09;100701.63;;;7.06;100.00
10668;BME280;5382;42.136;24.796;2022-10-22T05:03:37;100632.38;;;6.45;100.00
10668;BME280;5382;42.136;24.796;2022-10-22T05:06:05;100708.25;;;7.14;100.00
10668;BME280;5382;42.136;24.796;2022-10-22T05:08:37;100863.47;;;7.96;100.00
10668;BME280;5382;42.136;24.796;2022-10-22T05:11:16;100846.63;;;8.00;100.00
10668;BME280;5382;42.136;24.796;2022-10-22T05:13:45;100789.25;;;7.68;100.00
10668;BME280;5382;42.136;24.796;2022-10-22T05:16:12;100787.91;;;7.78;100.00
10668;BME280;5382;42.136;24.796;2022-10-22T05:18:40;100829.22;;;7.96;100.00
10668;BME280;5382;42.136;24.796;2022-10-22T05:21:10;100792.59;;;7.71;100.00
10668;BME280;5382;42.136;24.796;2022-10-22T05:23:39;100719.19;;;7.26;100.00
10668;BME280;5382;42.136;24.796;2022-10-22T05:26:09;100746.38;;;7.45;100.00
10668;BME280;5382;42.136;24.796;2022-10-22T05:28:38;100831.06;;;7.94;100.00
10668;BME280;5382;42.136;24.796;2022-10-22T05:31:11;100786.97;;;7.60;100.00
10668;BME280;5382;42.136;24.796;2022-10-22T05:33:39;100837.81;;;7.81;100.00
10668;BME280;5382;42.136;24.796;2022-10-22T05:36:07;100737.75;;;7.02;100.00
10668;BME280;5382;42.136;24.796;2022-10-22T05:38:36;100828.44;;;7.15;100.00
10668;BME280;5382;42.136;24.796;2022-10-22T05:41:11;100835.59;;;7.32;100.00
10668;BME280;5382;42.136;24.796;2022-10-22T05:43:39;100838.41;;;7.28;100.00
10668;BME280;5382;42.136;24.796;2022-10-22T05:46:08;100761.28;;;6.64;100.00
10668;BME280;5382;42.136;24.796;2022-10-22T05:48:35;100806.06;;;7.05;100.00
10668;BME280;5382;42.136;24.796;2022-10-22T05:51:03;100831.56;;;7.03;100.00
10668;BME280;5382;42.136;24.796;2022-10-22T05:53:30;100829.25;;;6.95;100.00
10668;BME280;5382;42.136;24.796;2022-10-22T05:56:01;100827.72;;;6.69;100.00
10668;BME280;5382;42.136;24.796;2022-10-22T05:58:29;100784.53;;;6.53;100.00
10668;BME280;5382;42.136;24.796;2022-10-22T06:01:01;100845.13;;;6.50;100.00
10668;BME280;5382;42.136;24.796;2022-10-22T06:03:28;100815.22;;;6.52;100.00
10668;BME280;5382;42.136;24.796;2022-10-22T06:05:56;100756.31;;;6.36;100.00
10668;BME280;5382;42.136;24.796;2022-10-22T06:08:25;100828.75;;;7.08;100.00
10668;BME280;5382;42.136;24.796;2022-10-22T06:10:53;100834.88;;;7.29;100.00
10668;BME280;5382;42.136;24.796;2022-10-22T06:13:20;100783.25;;;7.25;100.00
10668;BME280;5382;42.136;24.796;2022-10-22T06:15:48;100837.97;;;7.78;100.00
10668;BME280;5382;42.136;24.796;2022-10-22T06:18:17;100761.41;;;7.62;100.00
10668;BME280;5382;42.136;24.796;2022-10-22T06:20:44;100751.09;;;7.57;100.00
10668;BME280;5382;42.136;24.796;2022-10-22T06:23:12;100734.16;;;7.63;100.00
10668;BME280;5382;42.136;24.796;2022-10-22T06:25:39;100835.28;;;8.55;100.00
10668;BME280;5382;42.136;24.796;2022-10-22T06:28:06;100824.59;;;8.76;100.00
10668;BME280;5382;42.136;24.796;2022-10-22T06:30:32;100829.50;;;8.83;100.00
10668;BME280;5382;42.136;24.796;2022-10-22T06:33:01;100809.84;;;8.71;100.00
10668;BME280;5382;42.136;24.796;2022-10-22T06:35:28;100781.28;;;8.62;100.00
10668;BME280;5382;42.136;24.796;2022-10-22T06:37:55;100836.25;;;8.89;100.00
10668;BME280;5382;42.136;24.796;2022-10-22T06:40:25;100838.19;;;9.20;100.00
10668;BME280;5382;42.136;24.796;2022-10-22T06:42:53;100752.25;;;8.80;100.00
10668;BME280;5382;42.136;24.796;2022-10-22T06:45:20;100794.47;;;8.97;100.00
10668;BME280;5382;42.136;24.796;2022-10-22T06:47:47;100758.31;;;8.99;100.00
10668;BME280;5382;42.136;24.796;2022-10-22T06:50:17;100698.34;;;8.68;100.00
10668;BME280;5382;42.136;24.796;2022-10-22T06:52:44;100839.22;;;9.68;100.00
10668;BME280;5382;42.136;24.796;2022-10-22T06:55:11;100847.91;;;9.70;100.00
10668;BME280;5382;42.136;24.796;2022-10-22T06:57:38;100783.88;;;9.65;100.00
10668;BME280;5382;42.136;24.796;2022-10-22T07:00:06;100794.22;;;9.86;100.00
10668;BME280;5382;42.136;24.796;2022-10-22T07:02:34;100754.66;;;9.68;100.00
10668;BME280;5382;42.136;24.796;2022-10-22T07:05:02;100826.09;;;10.32;100.00
10668;BME280;5382;42.136;24.796;2022-10-22T07:07:31;100790.41;;;10.07;100.00
10668;BME280;5382;42.136;24.796;2022-10-22T07:09:58;100828.81;;;10.62;100.00
10668;BME280;5382;42.136;24.796;2022-10-22T07:12:25;100869.94;;;10.83;100.00
10668;BME280;5382;42.136;24.796;2022-10-22T07:14:54;100866.75;;;10.93;100.00
10668;BME280;5382;42.136;24.796;2022-10-22T07:17:22;100794.63;;;10.73;100.00
10668;BME280;5382;42.136;24.796;2022-10-22T07:19:49;100832.69;;;11.17;100.00
10668;BME280;5382;42.136;24.796;2022-10-22T07:22:16;100821.69;;;11.08;100.00
10668;BME280;5382;42.136;24.796;2022-10-22T07:24:45;100857.53;;;11.44;100.00
10668;BME280;5382;42.136;24.796;2022-10-22T07:27:12;100811.09;;;11.23;100.00
10668;BME280;5382;42.136;24.796;2022-10-22T07:29:39;100864.72;;;11.42;100.00
10668;BME280;5382;42.136;24.796;2022-10-22T07:32:06;100790.69;;;11.10;100.00
10668;BME280;5382;42.136;24.796;2022-10-22T07:34:33;100769.66;;;11.07;100.00
10668;BME280;5382;42.136;24.796;2022-10-22T07:37:00;100844.19;;;11.60;100.00
10668;BME280;5382;42.136;24.796;2022-10-22T07:39:27;100818.81;;;11.42;100.00
10668;BME280;5382;42.136;24.796;2022-10-22T07:41:56;100846.97;;;11.73;100.00
10668;BME280;5382;42.136;24.796;2022-10-22T07:44:23;100832.19;;;11.83;100.00
10668;BME280;5382;42.136;24.796;2022-10-22T07:46:51;100690.66;;;10.85;100.00
10668;BME280;5382;42.136;24.796;2022-10-22T07:49:18;100799.25;;;11.87;100.00
10668;BME280;5382;42.136;24.796;2022-10-22T07:51:45;100844.78;;;12.22;100.00
10668;BME280;5382;42.136;24.796;2022-10-22T07:54:12;100861.94;;;12.17;100.00
10668;BME280;5382;42.136;24.796;2022-10-22T07:56:39;100737.66;;;11.82;100.00
10668;BME280;5382;42.136;24.796;2022-10-22T07:59:08;100795.25;;;12.36;100.00
10668;BME280;5382;42.136;24.796;2022-10-22T08:01:35;100650.75;;;11.73;100.00
10668;BME280;5382;42.136;24.796;2022-10-22T08:04:01;100822.16;;;12.44;100.00
10668;BME280;5382;42.136;24.796;2022-10-22T08:06:29;100799.72;;;12.35;100.00
10668;BME280;5382;42.136;24.796;2022-10-22T08:08:56;100792.44;;;12.52;100.00
10668;BME280;5382;42.136;24.796;2022-10-22T08:11:23;100802.19;;;12.65;100.00
10668;BME280;5382;42.136;24.796;2022-10-22T08:13:51;100777.34;;;12.39;100.00
10668;BME280;5382;42.136;24.796;2022-10-22T08:16:20;100843.91;;;13.03;100.00
10668;BME280;5382;42.136;24.796;2022-10-22T08:18:47;100771.25;;;12.64;99.54
10668;BME280;5382;42.136;24.796;2022-10-22T08:21:14;100745.06;;;12.73;99.22
10668;BME280;5382;42.136;24.796;2022-10-22T08:23:42;100828.19;;;13.40;97.40
10668;BME280;5382;42.136;24.796;2022-10-22T08:26:09;100795.31;;;13.41;95.58
10668;BME280;5382;42.136;24.796;2022-10-22T08:28:36;100841.25;;;13.69;94.42
10668;BME280;5382;42.136;24.796;2022-10-22T08:31:07;100773.50;;;13.36;93.17
10668;BME280;5382;42.136;24.796;2022-10-22T08:33:36;100821.97;;;13.91;93.45
10668;BME280;5382;42.136;24.796;2022-10-22T08:36:05;100757.44;;;13.63;92.29
10668;BME280;5382;42.136;24.796;2022-10-22T08:38:32;100775.78;;;13.92;90.64
10668;BME280;5382;42.136;24.796;2022-10-22T08:41:06;100831.84;;;14.38;90.15
10668;BME280;5382;42.136;24.796;2022-10-22T08:43:57;100793.75;;;14.38;88.22
10668;BME280;5382;42.136;24.796;2022-10-22T08:46:36;100757.47;;;14.48;87.82
10668;BME280;5382;42.136;24.796;2022-10-22T08:49:11;100815.09;;;14.73;85.59
10668;BME280;5382;42.136;24.796;2022-10-22T08:51:42;100738.91;;;14.35;84.11
10668;BME280;5382;42.136;24.796;2022-10-22T08:54:31;100803.13;;;14.79;83.49
10668;BME280;5382;42.136;24.796;2022-10-22T08:57:11;100780.78;;;14.93;84.33
10668;BME280;5382;42.136;24.796;2022-10-22T08:59:47;100793.22;;;15.16;81.77
10668;BME280;5382;42.136;24.796;2022-10-22T09:02:29;100752.13;;;15.08;80.38
10668;BME280;5382;42.136;24.796;2022-10-22T09:05:09;100736.69;;;14.89;80.69
10668;BME280;5382;42.136;24.796;2022-10-22T09:07:40;100791.16;;;15.20;80.30
10668;BME280;5382;42.136;24.796;2022-10-22T09:10:15;100799.94;;;15.56;78.67
10668;BME280;5382;42.136;24.796;2022-10-22T09:12:44;100744.88;;;15.21;79.23
10668;BME280;5382;42.136;24.796;2022-10-22T09:15:14;100742.81;;;15.47;78.61
10668;BME280;5382;42.136;24.796;2022-10-22T09:17:50;100566.63;;;14.71;77.42
10668;BME280;5382;42.136;24.796;2022-10-22T09:20:26;100709.25;;;15.78;76.00
10668;BME280;5382;42.136;24.796;2022-10-22T09:23:06;100700.94;;;16.04;74.91
10668;BME280;5382;42.136;24.796;2022-10-22T09:25:40;100767.44;;;16.71;73.00
10668;BME280;5382;42.136;24.796;2022-10-22T09:28:10;100699.53;;;16.53;70.90
10668;BME280;5382;42.136;24.796;2022-10-22T09:30:38;100759.84;;;17.09;68.39
10668;BME280;5382;42.136;24.796;2022-10-22T09:33:13;100779.94;;;17.03;68.43
10668;BME280;5382;42.136;24.796;2022-10-22T09:35:47;100715.03;;;16.91;67.76
10668;BME280;5382;42.136;24.796;2022-10-22T09:38:19;100776.13;;;17.48;67.05
10668;BME280;5382;42.136;24.796;2022-10-22T09:40:49;100717.47;;;17.25;65.08
10668;BME280;5382;42.136;24.796;2022-10-22T09:43:18;100534.19;;;16.60;65.43
10668;BME280;5382;42.136;24.796;2022-10-22T09:45:45;100706.13;;;17.83;63.17
10668;BME280;5382;42.136;24.796;2022-10-22T09:48:20;100744.66;;;17.61;64.51
10668;BME280;5382;42.136;24.796;2022-10-22T09:50:59;100611.88;;;16.47;67.83
10668;BME280;5382;42.136;24.796;2022-10-22T09:53:29;100721.94;;;17.55;66.38
10668;BME280;5382;42.136;24.796;2022-10-22T09:55:59;100536.09;;;16.48;66.63
10668;BME280;5382;42.136;24.796;2022-10-22T09:58:28;100675.81;;;17.02;66.40
10668;BME280;5382;42.136;24.796;2022-10-22T10:00:57;100640.16;;;16.70;67.71
10668;BME280;5382;42.136;24.796;2022-10-22T10:03:27;100711.09;;;16.95;68.72
10668;BME280;5382;42.136;24.796;2022-10-22T10:05:59;100682.25;;;16.57;69.44
10668;BME280;5382;42.136;24.796;2022-10-22T10:08:27;100573.72;;;16.35;68.39
10668;BME280;5382;42.136;24.796;2022-10-22T10:10:58;100556.22;;;16.52;67.21
10668;BME280;5382;42.136;24.796;2022-10-22T10:13:36;100617.94;;;17.31;64.76
10668;BME280;5382;42.136;24.796;2022-10-22T10:16:12;100638.38;;;17.92;63.85
10668;BME280;5382;42.136;24.796;2022-10-22T10:18:55;100688.00;;;18.45;63.29
10668;BME280;5382;42.136;24.796;2022-10-22T10:21:33;100616.22;;;18.09;61.16
10668;BME280;5382;42.136;24.796;2022-10-22T10:24:10;100602.56;;;17.93;60.22
10668;BME280;5382;42.136;24.796;2022-10-22T10:26:50;100505.06;;;17.86;60.44
10668;BME280;5382;42.136;24.796;2022-10-22T10:29:30;100632.06;;;18.89;57.09
10668;BME280;5382;42.136;24.796;2022-10-22T10:32:20;100630.06;;;19.83;56.19
10668;BME280;5382;42.136;24.796;2022-10-22T10:34:56;100580.94;;;20.27;52.29
10668;BME280;5382;42.136;24.796;2022-10-22T10:37:31;100577.34;;;20.97;46.97
10668;BME280;5382;42.136;24.796;2022-10-22T10:40:13;100653.03;;;21.78;46.42
10668;BME280;5382;42.136;24.796;2022-10-22T10:42:50;100561.28;;;21.72;45.60
10668;BME280;5382;42.136;24.796;2022-10-22T10:45:24;100538.34;;;21.68;44.40
10668;BME280;5382;42.136;24.796;2022-10-22T10:48:18;100618.66;;;22.87;43.19
10668;BME280;5382;42.136;24.796;2022-10-22T10:50:59;100548.00;;;23.54;39.68
10668;BME280;5382;42.136;24.796;2022-10-22T10:53:44;100471.50;;;24.00;38.69
10668;BME280;5382;42.136;24.796;2022-10-22T10:56:29;100601.69;;;24.87;37.47
10668;BME280;5382;42.136;24.796;2022-10-22T10:59:06;100558.41;;;25.60;36.34
10668;BME280;5382;42.136;24.796;2022-10-22T11:01:42;100600.88;;;26.10;34.36
10668;BME280;5382;42.136;24.796;2022-10-22T11:04:40;100546.44;;;25.91;34.56
10668;BME280;5382;42.136;24.796;2022-10-22T11:07:27;100573.16;;;26.71;33.62
10668;BME280;5382;42.136;24.796;2022-10-22T11:10:26;100564.00;;;27.14;32.57
10668;BME280;5382;42.136;24.796;2022-10-22T11:12:58;100400.16;;;25.82;33.30
10668;BME280;5382;42.136;24.796;2022-10-22T11:15:30;100535.59;;;27.16;31.86
10668;BME280;5382;42.136;24.796;2022-10-22T11:18:04;100550.34;;;27.42;31.00
10668;BME280;5382;42.136;24.796;2022-10-22T11:20:43;100506.06;;;26.59;32.26
10668;BME280;5382;42.136;24.796;2022-10-22T11:23:15;100454.81;;;26.77;31.69
10668;BME280;5382;42.136;24.796;2022-10-22T11:25:54;100545.84;;;28.22;31.15
10668;BME280;5382;42.136;24.796;2022-10-22T11:28:26;100538.72;;;28.48;30.04
10668;BME280;5382;42.136;24.796;2022-10-22T11:30:59;100562.56;;;28.66;29.62
10668;BME280;5382;42.136;24.796;2022-10-22T11:33:35;100547.94;;;28.20;29.65
10668;BME280;5382;42.136;24.796;2022-10-22T11:36:09;100477.06;;;28.74;29.07
10668;BME280;5382;42.136;24.796;2022-10-22T11:38:36;100522.16;;;29.21;28.89
10668;BME280;5382;42.136;24.796;2022-10-22T11:41:09;100419.63;;;28.17;28.85
10668;BME280;5382;42.136;24.796;2022-10-22T11:43:55;100504.91;;;29.27;28.52
10668;BME280;5382;42.136;24.796;2022-10-22T11:46:43;100425.50;;;29.49;27.85
10668;BME280;5382;42.136;24.796;2022-10-22T11:49:22;100497.41;;;30.36;27.05
10668;BME280;5382;42.136;24.796;2022-10-22T11:51:51;100483.50;;;30.56;27.39
10668;BME280;5382;42.136;24.796;2022-10-22T11:54:39;100476.34;;;30.74;26.42
10668;BME280;5382;42.136;24.796;2022-10-22T11:57:21;100445.56;;;29.29;27.13
10668;BME280;5382;42.136;24.796;2022-10-22T11:59:56;100488.38;;;29.22;27.64
10668;BME280;5382;42.136;24.796;2022-10-22T12:02:41;100478.06;;;29.31;27.89
10668;BME280;5382;42.136;24.796;2022-10-22T12:05:42;100472.41;;;29.57;27.81
10668;BME280;5382;42.136;24.796;2022-10-22T12:08:28;100413.75;;;29.17;27.22
10668;BME280;5382;42.136;24.796;2022-10-22T12:11:05;100433.09;;;29.40;27.25
10668;BME280;5382;42.136;24.796;2022-10-22T12:14:01;100441.78;;;29.30;27.04
10668;BME280;5382;42.136;24.796;2022-10-22T12:16:36;100317.75;;;29.40;26.34
10668;BME280;5382;42.136;24.796;2022-10-22T12:19:13;100453.00;;;30.96;25.74
10668;BME280;5382;42.136;24.796;2022-10-22T12:21:44;100427.59;;;31.07;25.61
10668;BME280;5382;42.136;24.796;2022-10-22T12:24:14;100312.50;;;30.97;24.88
10668;BME280;5382;42.136;24.796;2022-10-22T12:26:43;100372.13;;;31.30;24.72
10668;BME280;5382;42.136;24.796;2022-10-22T12:29:16;100413.41;;;31.29;24.41
10668;BME280;5382;42.136;24.796;2022-10-22T12:31:45;100409.75;;;30.56;25.08
10668;BME280;5382;42.136;24.796;2022-10-22T12:34:14;100382.25;;;30.39;25.76
10668;BME280;5382;42.136;24.796;2022-10-22T12:36:41;100422.22;;;29.90;25.51
10668;BME280;5382;42.136;24.796;2022-10-22T12:39:12;100386.94;;;28.75;26.89
10668;BME280;5382;42.136;24.796;2022-10-22T12:41:39;100427.13;;;28.86;27.01
10668;BME280;5382;42.136;24.796;2022-10-22T12:44:10;100297.53;;;28.27;26.76
10668;BME280;5382;42.136;24.796;2022-10-22T12:46:40;100380.44;;;29.14;26.83
10668;BME280;5382;42.136;24.796;2022-10-22T12:49:16;100398.28;;;30.11;26.59
10668;BME280;5382;42.136;24.796;2022-10-22T12:51:46;100384.94;;;30.58;25.92
10668;BME280;5382;42.136;24.796;2022-10-22T12:54:21;100400.66;;;31.23;24.92
10668;BME280;5382;42.136;24.796;2022-10-22T12:56:49;100399.31;;;31.79;24.75
10668;BME280;5382;42.136;24.796;2022-10-22T12:59:20;100403.81;;;32.32;23.82
10668;BME280;5382;42.136;24.796;2022-10-22T13:01:50;100394.38;;;32.52;24.11
10668;BME280;5382;42.136;24.796;2022-10-22T13:04:30;100383.28;;;32.58;23.29
10668;BME280;5382;42.136;24.796;2022-10-22T13:07:16;100399.91;;;31.58;24.16
10668;BME280;5382;42.136;24.796;2022-10-22T13:09:45;100402.28;;;31.66;24.16
10668;BME280;5382;42.136;24.796;2022-10-22T13:12:13;100372.44;;;31.11;24.19
10668;BME280;5382;42.136;24.796;2022-10-22T13:14:43;100379.97;;;31.27;23.82
10668;BME280;5382;42.136;24.796;2022-10-22T13:17:14;100347.59;;;31.12;24.61
10668;BME280;5382;42.136;24.796;2022-10-22T13:19:45;100392.44;;;32.00;23.36
10668;BME280;5382;42.136;24.796;2022-10-22T13:22:27;100393.78;;;32.38;23.33